createdAt,value
2022-08-28T04:01:40.488Z,98772.75
2022-08-28T04:05:52.748Z,98776.41
2022-08-28T04:10:05.028Z,98780.13
2022-08-28T04:14:16.546Z,98780.13
2022-08-28T04:18:30.579Z,98780.13
2022-08-28T04:22:42.653Z,98766.75
2022-08-28T04:26:56.918Z,98774.03
2022-08-28T04:31:08.867Z,98770.00
2022-08-28T04:35:20.768Z,98780.75
2022-08-28T04:39:33.452Z,98785.00
2022-08-28T04:43:44.973Z,98784.38
2022-08-28T04:47:56.674Z,98790.09
2022-08-28T04:52:08.231Z,98794.34
2022-08-28T04:56:19.783Z,98799.44
2022-08-28T05:00:31.309Z,98798.41
2022-08-28T05:04:42.820Z,98804.94
2022-08-28T05:08:57.067Z,98802.91
2022-08-28T05:13:11.191Z,98809.38
2022-08-28T05:17:22.719Z,98808.97
2022-08-28T05:21:34.256Z,98816.06
2022-08-28T05:25:48.570Z,98817.47
2022-08-28T05:30:02.165Z,98820.09
2022-08-28T05:34:15.125Z,98824.75
2022-08-28T05:38:26.670Z,98819.31
2022-08-28T05:42:39.151Z,98825.78
2022-08-28T05:46:50.949Z,98826.97
2022-08-28T05:51:11.034Z,98826.75
2022-08-28T05:55:22.912Z,98825.53
2022-08-28T05:59:34.431Z,98817.75
2022-08-28T06:03:52.649Z,98812.47
2022-08-28T06:08:04.227Z,98824.63
2022-08-28T06:12:16.530Z,98833.50
2022-08-28T06:16:28.780Z,98826.63
2022-08-28T06:20:42.357Z,98833.09
2022-08-28T06:24:53.891Z,98839.56
2022-08-28T06:29:08.499Z,98838.34
2022-08-28T06:33:21.488Z,98845.63
2022-08-28T06:37:33.002Z,98847.19
2022-08-28T06:41:44.573Z,98852.28
2022-08-28T06:45:57.691Z,98862.19
2022-08-28T06:50:09.601Z,98864.75
2022-08-28T06:54:23.336Z,98867.72
2022-08-28T06:58:37.523Z,98866.28
2022-08-28T07:02:49.310Z,98876.72
2022-08-28T07:07:00.819Z,98874.16
2022-08-28T07:11:28.646Z,98875.66
2022-08-28T07:15:41.881Z,98878.44
2022-08-28T07:19:53.605Z,98877.88
2022-08-28T07:24:05.307Z,98883.41
2022-08-28T07:28:16.998Z,98881.97
2022-08-28T07:32:28.868Z,98894.41
2022-08-28T07:36:40.841Z,98890.22
2022-08-28T07:40:54.528Z,98886.34
2022-08-28T07:45:06.654Z,98892.94
2022-08-28T07:49:18.294Z,98894.25
2022-08-28T07:53:34.424Z,98897.72
2022-08-28T07:57:48.619Z,98897.06
2022-08-28T08:02:00.128Z,98891.41
2022-08-28T08:06:13.209Z,98904.03
2022-08-28T08:10:24.737Z,98903.66
2022-08-28T08:14:37.650Z,98908.56
2022-08-28T08:18:51.038Z,98914.78
2022-08-28T08:23:02.550Z,98919.66
2022-08-28T08:27:14.052Z,98913.22
2022-08-28T08:31:29.435Z,98922.72
2022-08-28T08:35:41.364Z,98927.16
2022-08-28T08:39:54.541Z,98929.69
2022-08-28T08:44:23.328Z,98939.16
2022-08-28T08:48:37.355Z,98936.88
2022-08-28T08:53:07.853Z,98940.59
2022-08-28T08:57:20.768Z,98943.59
2022-08-28T09:02:11.307Z,98948.09
2022-08-28T09:06:50.042Z,98949.00
2022-08-28T09:11:11.825Z,98958.78
2022-08-28T09:15:31.424Z,98953.25
2022-08-28T09:19:42.952Z,98953.63
2022-08-28T09:23:55.067Z,98960.66
2022-08-28T09:28:09.479Z,98960.72
2022-08-28T09:32:44.209Z,98968.88
2022-08-28T09:36:58.594Z,98974.13
2022-08-28T09:41:30.178Z,98958.94
2022-08-28T09:45:41.857Z,98964.31
2022-08-28T09:49:53.365Z,98968.34
2022-08-28T09:54:17.047Z,98966.84
2022-08-28T09:58:45.745Z,98965.69
2022-08-28T10:03:21.675Z,98959.81
2022-08-28T10:07:54.956Z,98960.38
2022-08-28T10:12:29.763Z,98960.72
2022-08-28T10:17:11.504Z,98959.69
2022-08-28T10:21:50.611Z,98957.38
2022-08-28T10:26:17.452Z,98955.28
2022-08-28T10:30:33.473Z,98952.56
2022-08-28T10:35:08.724Z,98954.19
2022-08-28T10:39:40.986Z,98953.34
2022-08-28T10:43:55.110Z,98952.19
2022-08-28T10:48:22.307Z,98946.25
2022-08-28T10:52:41.585Z,98947.28
2022-08-28T10:57:18.113Z,98944.94
2022-08-28T11:01:34.236Z,98945.66
2022-08-28T11:05:54.992Z,98939.91
2022-08-28T11:10:38.621Z,98940.59
2022-08-28T11:14:51.276Z,98947.44
2022-08-28T11:19:14.658Z,98950.81
2022-08-28T11:23:41.935Z,98950.41
2022-08-28T11:28:23.960Z,98944.34
2022-08-28T11:32:41.503Z,98943.22
2022-08-28T11:37:00.367Z,98950.66
2022-08-28T11:41:14.757Z,98938.72
2022-08-28T11:45:50.591Z,98941.78
2022-08-28T11:50:32.981Z,98936.66
2022-08-28T11:54:59.935Z,98933.25
2022-08-28T11:59:43.565Z,98930.16
2022-08-28T12:04:07.577Z,98933.75
2022-08-28T12:08:44.778Z,98921.06
2022-08-28T12:13:00.446Z,98920.91
2022-08-28T12:17:14.876Z,98928.63
2022-08-28T12:21:29.080Z,98919.28
2022-08-28T12:25:43.877Z,98912.91
2022-08-28T12:30:00.402Z,98923.81
2022-08-28T12:34:34.764Z,98909.13
2022-08-28T12:38:51.441Z,98916.63
2022-08-28T12:43:09.460Z,98913.09
2022-08-28T12:47:22.834Z,98907.97
2022-08-28T12:51:36.867Z,98910.91
2022-08-28T12:55:48.689Z,98905.44
2022-08-28T13:00:09.438Z,98909.56
2022-08-28T13:04:39.903Z,98897.78
2022-08-28T13:08:57.507Z,98894.28
2022-08-28T13:13:18.549Z,98895.16
2022-08-28T13:17:50.652Z,98876.50
2022-08-28T13:22:29.625Z,98894.59
2022-08-28T13:26:41.225Z,98883.28
2022-08-28T13:30:58.499Z,98888.47
2022-08-28T13:35:10.074Z,98879.13
2022-08-28T13:39:22.733Z,98890.31
2022-08-28T13:43:46.227Z,98885.94
2022-08-28T13:47:57.752Z,98874.31
2022-08-28T13:52:10.933Z,98872.47
2022-08-28T13:56:22.852Z,98877.44
2022-08-28T14:00:40.258Z,98874.19
2022-08-28T14:04:51.893Z,98865.69
2022-08-28T14:09:03.429Z,98859.38
2022-08-28T14:13:15.061Z,98861.03
2022-08-28T14:17:26.729Z,98862.63
2022-08-28T14:21:40.441Z,98861.28
2022-08-28T14:25:52.309Z,98863.34
2022-08-28T14:30:08.138Z,98860.88
2022-08-28T14:34:22.574Z,98846.44
2022-08-28T14:38:34.136Z,98853.06
2022-08-28T14:42:45.754Z,98854.88
2022-08-28T14:46:57.480Z,98853.63
2022-08-28T14:51:09.075Z,98847.03
2022-08-28T14:55:20.850Z,98839.78
2022-08-28T14:59:33.866Z,98843.56
2022-08-28T15:03:45.474Z,98847.81
2022-08-28T15:07:57.036Z,98847.53
2022-08-28T15:12:08.933Z,98844.84
2022-08-28T15:16:29.828Z,98840.53
2022-08-28T15:20:45.475Z,98842.69
2022-08-28T15:24:57.033Z,98840.81
2022-08-28T15:29:10.720Z,98836.84
2022-08-28T15:33:22.241Z,98838.38
2022-08-28T15:37:33.741Z,98838.38
2022-08-28T15:41:47.094Z,98833.59
2022-08-28T15:45:58.795Z,98833.63
2022-08-28T15:50:11.342Z,98826.44
2022-08-28T15:54:24.096Z,98826.09
2022-08-28T15:58:36.307Z,98820.78
2022-08-28T16:02:47.911Z,98822.63
2022-08-28T16:07:00.687Z,98821.78
2022-08-28T16:11:19.238Z,98827.84
2022-08-28T16:15:30.761Z,98822.81
2022-08-28T16:19:42.602Z,98821.22
2022-08-28T16:23:54.150Z,98823.38
2022-08-28T16:28:06.516Z,98828.72
2022-08-28T16:32:18.106Z,98829.72
2022-08-28T16:36:30.252Z,98840.00
2022-08-28T16:40:44.771Z,98841.00
2022-08-28T16:45:05.204Z,98840.31
2022-08-28T16:49:16.964Z,98832.81
2022-08-28T16:53:28.920Z,98837.50
2022-08-28T16:57:42.247Z,98837.94
2022-08-28T17:01:54.529Z,98835.50
2022-08-28T17:06:12.550Z,98828.56
2022-08-28T17:10:25.110Z,98828.47
2022-08-28T17:14:37.584Z,98817.28
2022-08-28T17:18:52.422Z,98821.91
2022-08-28T17:23:05.786Z,98818.63
2022-08-28T17:27:22.605Z,98824.41
2022-08-28T17:31:35.519Z,98826.78
2022-08-28T17:35:50.280Z,98824.22
2022-08-28T17:40:07.233Z,98832.88
2022-08-28T17:44:18.806Z,98826.34
2022-08-28T17:48:31.607Z,98831.63
2022-08-28T17:52:43.183Z,98834.19
2022-08-28T17:56:56.184Z,98845.19
2022-08-28T18:01:07.734Z,98843.00
2022-08-28T18:05:19.489Z,98844.38
2022-08-28T18:09:31.061Z,98854.81
2022-08-28T18:13:42.569Z,98860.97
2022-08-28T18:17:54.113Z,98852.91
2022-08-28T18:22:08.421Z,98861.25
2022-08-28T18:26:20.486Z,98864.25
2022-08-28T18:30:33.515Z,98874.13
2022-08-28T18:34:45.792Z,98881.84
2022-08-28T18:38:57.905Z,98887.59
2022-08-28T18:43:09.717Z,98886.88
2022-08-28T18:47:21.245Z,98892.81
2022-08-28T18:51:32.966Z,98897.25
2022-08-28T18:55:45.716Z,98902.22
2022-08-28T18:59:57.233Z,98911.78
2022-08-28T19:04:08.808Z,98923.09
2022-08-28T19:08:20.438Z,98936.03
2022-08-28T19:12:33.334Z,98933.78
2022-08-28T19:16:45.678Z,98944.25
2022-08-28T19:21:06.954Z,98940.59
2022-08-28T19:25:28.388Z,98944.69
2022-08-28T19:29:40.670Z,98943.66
2022-08-28T19:33:52.344Z,98943.75
2022-08-28T19:38:03.978Z,98953.19
2022-08-28T19:42:15.598Z,98963.44
2022-08-28T19:46:27.371Z,98965.81
2022-08-28T19:50:39.167Z,98958.97
2022-08-28T19:54:50.696Z,98967.38
2022-08-28T19:59:08.741Z,98982.56
2022-08-28T20:03:21.373Z,98980.66
2022-08-28T20:07:32.890Z,98977.59
2022-08-28T20:11:46.726Z,98986.31
2022-08-28T20:16:02.495Z,98983.44
2022-08-28T20:20:14.197Z,98986.75
2022-08-28T20:24:25.808Z,98993.34
2022-08-28T20:28:37.641Z,98993.81
2022-08-28T20:32:49.178Z,98996.75
2022-08-28T20:37:01.305Z,98990.94
2022-08-28T20:41:18.906Z,99000.19
2022-08-28T20:45:30.711Z,99000.28
2022-08-28T20:49:42.244Z,99006.28
2022-08-28T20:53:53.758Z,99011.03
2022-08-28T20:58:05.304Z,99004.19
2022-08-28T21:02:20.258Z,99006.28
2022-08-28T21:06:32.032Z,99008.41
2022-08-28T21:10:44.964Z,99021.53
2022-08-28T21:14:56.561Z,99013.44
2022-08-28T21:19:16.390Z,99017.56
2022-08-28T21:23:28.240Z,99019.66
2022-08-28T21:27:40.032Z,99024.16
